createdAt,value
2023-03-08T00:01:47.081Z,0.88
2023-03-08T00:06:50.771Z,5.32
2023-03-08T00:11:54.540Z,1.85
2023-03-08T00:17:00.185Z,4.17
2023-03-08T00:22:05.222Z,6.75
2023-03-08T00:27:09.038Z,1.58
2023-03-08T00:32:16.994Z,3.63
2023-03-08T00:37:21.525Z,5.07
2023-03-08T00:42:25.322Z,3.53
2023-03-08T00:47:30.053Z,3.85
2023-03-08T00:52:34.768Z,6.35
2023-03-08T00:57:38.393Z,1.85
2023-03-08T01:02:43.659Z,7.53
2023-03-08T01:07:47.725Z,3.38
2023-03-08T01:12:51.509Z,4.55
2023-03-08T01:17:56.633Z,6.57
2023-03-08T01:23:01.044Z,5.95
2023-03-08T01:28:05.283Z,4.77
2023-03-08T01:33:10.650Z,4.43
2023-03-08T01:38:14.707Z,4.45
2023-03-08T01:43:23.282Z,3.73
2023-03-08T01:48:32.361Z,5.70
2023-03-08T01:53:42.274Z,3.78
2023-03-08T01:58:49.065Z,5.60
2023-03-08T02:03:54.851Z,5.57
2023-03-08T02:09:04.651Z,6.68
2023-03-08T02:14:09.012Z,4.75
2023-03-08T02:19:23.679Z,4.95
2023-03-08T02:24:28.930Z,8.27
2023-03-08T02:29:33.139Z,16.08
2023-03-08T02:34:36.993Z,14.90
2023-03-08T02:39:41.874Z,7.10
2023-03-08T02:44:45.408Z,6.85
2023-03-08T02:49:49.041Z,4.47
2023-03-08T02:54:54.014Z,8.80
2023-03-08T02:59:59.425Z,12.65
2023-03-08T03:05:10.767Z,6.38
2023-03-08T03:10:18.618Z,12.70
2023-03-08T03:15:22.505Z,15.68
2023-03-08T03:20:30.622Z,9.15
2023-03-08T03:25:38.394Z,13.83
2023-03-08T03:30:45.016Z,11.23
2023-03-08T03:35:50.936Z,10.27
2023-03-08T03:41:01.806Z,18.80
2023-03-08T03:46:08.799Z,10.68
2023-03-08T03:51:14.818Z,12.20
2023-03-08T03:56:25.922Z,14.45
2023-03-08T04:01:33.184Z,14.27
2023-03-08T04:06:48.557Z,18.83
2023-03-08T04:11:56.672Z,8.13
2023-03-08T04:17:00.828Z,8.82
2023-03-08T04:22:13.385Z,12.43
2023-03-08T04:27:25.239Z,11.82
2023-03-08T04:32:31.571Z,10.02
2023-03-08T04:37:37.117Z,13.18
2023-03-08T04:42:46.947Z,8.00
2023-03-08T04:47:54.443Z,5.68
2023-03-08T04:52:58.096Z,11.60
2023-03-08T04:58:03.715Z,21.20
2023-03-08T05:03:09.050Z,15.90
2023-03-08T05:08:13.086Z,10.40
2023-03-08T05:13:18.696Z,9.07
2023-03-08T05:18:23.055Z,11.10
2023-03-08T05:23:28.884Z,23.03
2023-03-08T05:28:41.860Z,8.07
2023-03-08T05:33:49.446Z,7.60
2023-03-08T05:38:55.758Z,15.60
2023-03-08T05:44:05.668Z,13.88
2023-03-08T05:49:11.876Z,14.52
2023-03-08T05:54:16.333Z,14.00
2023-03-08T05:59:24.104Z,13.95
2023-03-08T06:04:28.218Z,12.18
2023-03-08T06:09:31.890Z,7.97
2023-03-08T06:14:37.278Z,15.07
2023-03-08T06:19:41.529Z,15.20
2023-03-08T06:24:45.369Z,12.73
2023-03-08T06:29:50.943Z,14.55
2023-03-08T06:34:54.669Z,18.70
2023-03-08T06:39:58.475Z,16.05
2023-03-08T06:45:04.324Z,15.47
2023-03-08T06:50:09.727Z,14.98
2023-03-08T06:55:15.735Z,16.65
2023-03-08T07:00:22.561Z,13.53
2023-03-08T07:05:26.376Z,16.30
2023-03-08T07:10:30.256Z,12.40
2023-03-08T07:15:38.701Z,11.52
2023-03-08T07:20:43.083Z,18.65
2023-03-08T07:25:47.401Z,24.13
2023-03-08T07:30:53.531Z,15.73
2023-03-08T07:36:01.550Z,19.25
2023-03-08T07:41:05.235Z,15.23
2023-03-08T07:46:10.108Z,17.70
2023-03-08T07:51:13.552Z,16.48
2023-03-08T07:56:17.027Z,15.95
2023-03-08T08:01:21.708Z,14.25
2023-03-08T08:06:25.488Z,10.90
2023-03-08T08:11:28.932Z,10.57
2023-03-08T08:16:34.530Z,10.65
2023-03-08T08:21:38.110Z,9.73
2023-03-08T08:26:41.678Z,10.13
2023-03-08T08:31:46.715Z,10.30
2023-03-08T08:36:50.509Z,11.77
2023-03-08T08:41:54.146Z,9.90
2023-03-08T08:46:59.435Z,9.43
2023-03-08T08:52:02.904Z,7.85
2023-03-08T08:57:06.618Z,9.05
2023-03-08T09:02:12.899Z,7.88
2023-03-08T09:07:17.010Z,7.78
2023-03-08T09:12:21.196Z,12.98
2023-03-08T09:17:26.442Z,6.53
2023-03-08T09:22:29.991Z,8.40
2023-03-08T09:27:34.767Z,6.43
2023-03-08T09:32:39.677Z,4.07
2023-03-08T09:37:43.718Z,8.13
2023-03-08T09:42:48.419Z,3.90
2023-03-08T09:48:04.830Z,7.18
2023-03-08T09:53:19.784Z,5.78
2023-03-08T09:58:37.442Z,5.50
2023-03-08T10:04:20.488Z,4.85
2023-03-08T10:09:31.149Z,4.97
2023-03-08T10:14:36.995Z,7.90
2023-03-08T10:19:46.734Z,11.23
2023-03-08T10:24:57.500Z,7.18
2023-03-08T10:30:11.216Z,3.55
2023-03-08T10:35:18.759Z,2.83
2023-03-08T10:40:22.815Z,6.85
2023-03-08T10:45:27.953Z,7.47
2023-03-08T10:50:35.458Z,5.95
2023-03-08T10:55:43.951Z,6.70
2023-03-08T11:00:54.281Z,4.53
2023-03-08T11:06:00.914Z,5.03
2023-03-08T11:11:07.994Z,5.45
2023-03-08T11:16:24.859Z,4.07
2023-03-08T11:21:37.478Z,4.95
2023-03-08T11:26:49.257Z,5.18
2023-03-08T11:31:59.233Z,4.03
2023-03-08T11:37:12.526Z,8.20
2023-03-08T11:42:28.886Z,4.15
2023-03-08T11:48:07.069Z,5.05
2023-03-08T11:53:18.575Z,5.70
2023-03-08T11:58:27.842Z,5.68
2023-03-08T12:03:35.826Z,6.93
2023-03-08T12:08:45.456Z,3.13
2023-03-08T12:13:54.259Z,4.85
2023-03-08T12:19:06.599Z,4.75
2023-03-08T12:24:24.307Z,5.65
2023-03-08T12:29:34.935Z,4.82
2023-03-08T12:34:40.768Z,6.13
2023-03-08T12:39:56.343Z,3.63
2023-03-08T12:45:28.145Z,3.28
2023-03-08T12:50:37.119Z,2.60
2023-03-08T12:55:43.342Z,10.07
2023-03-08T13:00:57.175Z,7.82
2023-03-08T13:06:00.804Z,5.18
2023-03-08T13:11:10.402Z,7.63
2023-03-08T13:16:30.461Z,6.10
2023-03-08T13:21:41.525Z,4.55
2023-03-08T13:27:15.513Z,5.05
2023-03-08T13:32:21.445Z,5.53
2023-03-08T13:37:26.990Z,6.75
2023-03-08T13:42:31.846Z,6.18
2023-03-08T13:47:37.807Z,7.70
2023-03-08T13:52:41.295Z,5.68
2023-03-08T13:57:51.651Z,6.75
2023-03-08T14:02:55.557Z,4.85
2023-03-08T14:08:03.002Z,6.32
2023-03-08T14:13:15.892Z,8.15
2023-03-08T14:18:22.493Z,7.65
2023-03-08T14:23:27.057Z,6.88
2023-03-08T14:28:40.817Z,6.15
2023-03-08T14:33:53.909Z,6.45
2023-03-08T14:39:01.507Z,8.40
2023-03-08T14:44:06.884Z,7.63
2023-03-08T14:49:20.383Z,8.10
2023-03-08T14:54:33.826Z,8.18
2023-03-08T14:59:41.326Z,7.78
2023-03-08T15:04:46.270Z,5.68
2023-03-08T15:09:51.291Z,7.15
2023-03-08T15:14:55.992Z,8.57
2023-03-08T15:19:59.473Z,10.50
2023-03-08T15:25:04.920Z,7.05
2023-03-08T15:30:20.529Z,12.07
2023-03-08T15:35:25.112Z,7.65
2023-03-08T15:40:31.166Z,10.23
2023-03-08T15:45:35.943Z,10.00
2023-03-08T15:50:39.706Z,9.20
2023-03-08T15:55:43.506Z,11.25
2023-03-08T16:00:49.055Z,10.35
2023-03-08T16:05:53.153Z,11.38
2023-03-08T16:11:00.266Z,12.05
2023-03-08T16:16:06.877Z,9.38
2023-03-08T16:21:11.750Z,9.70
2023-03-08T16:26:17.733Z,11.70
2023-03-08T16:31:23.108Z,10.45
2023-03-08T16:36:26.893Z,9.48
2023-03-08T16:41:30.406Z,19.00
2023-03-08T16:46:36.552Z,11.13
2023-03-08T16:51:40.276Z,12.38
2023-03-08T16:56:44.473Z,13.05
2023-03-08T17:01:50.092Z,16.70
2023-03-08T17:06:53.708Z,13.18
2023-03-08T17:11:57.213Z,14.63
2023-03-08T17:17:02.193Z,19.20
2023-03-08T17:27:09.775Z,13.88
2023-03-08T17:32:15.383Z,13.43
2023-03-08T17:37:18.990Z,12.77
2023-03-08T17:42:22.612Z,9.60
2023-03-08T17:47:27.803Z,12.10
2023-03-08T17:57:36.599Z,11.00
2023-03-08T18:02:41.577Z,12.43
2023-03-08T18:07:46.183Z,11.07
2023-03-08T18:12:49.640Z,10.10
2023-03-08T18:17:54.495Z,22.38
2023-03-08T18:22:58.094Z,10.52
2023-03-08T18:28:01.852Z,12.93
2023-03-08T18:33:06.837Z,14.15
2023-03-08T18:38:10.520Z,13.20
2023-03-08T18:43:13.947Z,15.35
2023-03-08T18:48:19.455Z,12.32
2023-03-08T18:53:23.677Z,18.20
2023-03-08T18:58:28.389Z,11.57
2023-03-08T19:03:33.368Z,24.85
2023-03-08T19:08:37.125Z,18.33
2023-03-08T19:13:41.453Z,14.48
2023-03-08T19:18:47.510Z,15.70
2023-03-08T19:23:51.539Z,14.57
2023-03-08T19:28:56.044Z,11.35
2023-03-08T19:34:01.775Z,13.43
2023-03-08T19:39:07.827Z,9.77
2023-03-08T19:44:11.419Z,18.98
2023-03-08T19:49:19.747Z,13.75
2023-03-08T19:54:25.763Z,12.05
2023-03-08T19:59:29.777Z,12.00
2023-03-08T20:04:36.462Z,14.65
2023-03-08T20:09:42.721Z,14.15
2023-03-08T20:14:46.379Z,14.82
2023-03-08T20:19:50.881Z,16.75
2023-03-08T20:29:58.513Z,20.05
2023-03-08T20:35:05.555Z,17.80
2023-03-08T20:40:12.902Z,15.68
2023-03-08T20:45:18.071Z,13.80
2023-03-08T20:55:29.008Z,15.75
2023-03-08T21:00:33.349Z,15.07
2023-03-08T21:05:38.614Z,16.42
2023-03-08T21:10:42.937Z,16.70
2023-03-08T21:15:47.217Z,16.50
2023-03-08T21:20:53.578Z,19.65
2023-03-08T21:25:59.899Z,17.95
2023-03-08T21:31:08.258Z,17.88
2023-03-08T21:36:13.322Z,20.48
2023-03-08T21:41:17.750Z,16.40
2023-03-08T21:46:21.455Z,19.30
2023-03-08T21:51:26.285Z,17.25
2023-03-08T21:56:29.808Z,17.67
2023-03-08T22:01:33.588Z,13.77
2023-03-08T22:06:38.622Z,15.50
2023-03-08T22:11:41.952Z,13.00
2023-03-08T22:16:45.265Z,18.48
2023-03-08T22:21:50.671Z,12.02
2023-03-08T22:31:57.501Z,13.13
2023-03-08T22:37:02.325Z,17.48
2023-03-08T22:42:06.282Z,13.75
2023-03-08T22:47:09.562Z,16.85
2023-03-08T22:52:14.291Z,18.83
2023-03-08T22:57:18.764Z,17.33
2023-03-08T23:02:22.050Z,12.77
2023-03-08T23:07:26.699Z,15.55
2023-03-08T23:12:29.994Z,13.43
2023-03-08T23:17:33.725Z,12.15
2023-03-08T23:22:38.303Z,15.82
2023-03-08T23:27:43.177Z,11.65
2023-03-08T23:32:46.636Z,15.85
2023-03-08T23:37:51.238Z,13.98
2023-03-08T23:42:54.492Z,25.48
2023-03-08T23:47:57.732Z,20.42
2023-03-08T23:53:02.227Z,14.88
2023-03-08T23:58:05.765Z,15.40
